createdAt,value
2022-11-20T00:00:45.838Z,31.56
2022-11-20T00:01:48.620Z,22.50
2022-11-20T00:02:50.563Z,21.09
2022-11-20T00:03:54.679Z,28.89
2022-11-20T00:04:57.093Z,25.00
2022-11-20T00:06:04.690Z,26.40
2022-11-20T00:07:06.504Z,27.60
2022-11-20T00:08:08.397Z,21.11
2022-11-20T00:09:10.514Z,22.44
2022-11-20T00:10:13.375Z,25.30
2022-11-20T00:11:18.854Z,20.90
2022-11-20T00:12:20.585Z,25.70
2022-11-20T00:13:22.741Z,20.67
2022-11-20T00:14:24.517Z,22.60
2022-11-20T00:15:26.279Z,20.11
2022-11-20T00:16:31.332Z,20.90
2022-11-20T00:17:33.739Z,22.80
2022-11-20T00:18:37.161Z,17.50
2022-11-20T00:19:39.005Z,16.70
2022-11-20T00:20:41.069Z,19.40
2022-11-20T00:21:42.820Z,16.44
2022-11-20T00:22:44.532Z,17.44
2022-11-20T00:23:47.598Z,17.89
2022-11-20T00:24:49.877Z,18.60
2022-11-20T00:25:52.117Z,19.10
2022-11-20T00:26:53.880Z,18.10
2022-11-20T00:27:55.530Z,18.33
2022-11-20T00:29:00.536Z,17.11
2022-11-20T00:30:04.368Z,19.40
2022-11-20T00:31:09.973Z,20.70
2022-11-20T00:32:11.801Z,20.60
2022-11-20T00:33:13.710Z,15.00
2022-11-20T00:34:15.469Z,18.78
2022-11-20T00:35:17.284Z,18.56
2022-11-20T00:36:26.607Z,17.73
2022-11-20T00:37:28.864Z,18.50
2022-11-20T00:38:31.891Z,14.90
2022-11-20T00:39:33.736Z,17.60
2022-11-20T00:40:35.834Z,12.33
2022-11-20T00:41:37.911Z,9.40
2022-11-20T00:42:39.742Z,17.11
2022-11-20T00:43:41.884Z,19.78
2022-11-20T00:44:43.682Z,18.30
2022-11-20T00:45:45.432Z,15.89
2022-11-20T00:46:47.143Z,18.44
2022-11-20T00:47:49.394Z,16.67
2022-11-20T00:48:51.266Z,16.60
2022-11-20T00:49:53.396Z,15.40
2022-11-20T00:50:56.093Z,15.33
2022-11-20T00:51:57.791Z,20.00
2022-11-20T00:52:59.394Z,18.33
2022-11-20T00:54:01.588Z,20.44
2022-11-20T00:55:04.398Z,17.90
2022-11-20T00:56:11.346Z,19.10
2022-11-20T00:57:13.160Z,19.10
2022-11-20T00:58:15.012Z,20.44
2022-11-20T00:59:16.723Z,20.22
2022-11-20T01:00:19.341Z,9.70
2022-11-20T01:01:24.112Z,10.30
2022-11-20T01:02:26.040Z,12.10
2022-11-20T01:03:30.482Z,15.44
2022-11-20T01:04:32.460Z,20.00
2022-11-20T01:05:35.611Z,19.11
2022-11-20T01:06:38.968Z,22.20
2022-11-20T01:07:41.856Z,20.20
2022-11-20T01:08:44.939Z,19.30
2022-11-20T01:09:46.799Z,22.00
2022-11-20T01:10:48.683Z,17.11
2022-11-20T01:11:50.569Z,18.56
2022-11-20T01:12:52.422Z,20.33
2022-11-20T01:13:56.328Z,20.33
2022-11-20T01:14:58.302Z,17.20
2022-11-20T01:16:05.289Z,21.44
2022-11-20T01:17:07.143Z,19.40
2022-11-20T01:18:10.099Z,17.67
2022-11-20T01:19:17.946Z,17.90
2022-11-20T01:20:19.340Z,16.70
2022-11-20T01:21:24.098Z,15.22
2022-11-20T01:22:26.098Z,15.00
2022-11-20T01:23:34.512Z,19.56
2022-11-20T01:24:36.429Z,19.00
2022-11-20T01:25:38.279Z,21.56
2022-11-20T01:26:41.800Z,19.44
2022-11-20T01:27:43.663Z,19.70
2022-11-20T01:28:47.133Z,21.56
2022-11-20T01:29:49.925Z,21.55
2022-11-20T01:30:51.786Z,19.09
2022-11-20T01:31:53.866Z,17.11
2022-11-20T01:32:56.117Z,20.30
2022-11-20T01:34:01.205Z,19.50
2022-11-20T01:35:03.469Z,18.70
2022-11-20T01:36:06.974Z,21.60
2022-11-20T01:37:08.913Z,17.80
2022-11-20T01:38:11.768Z,19.56
2022-11-20T01:39:17.239Z,19.45
2022-11-20T01:40:19.256Z,21.00
2022-11-20T01:41:21.609Z,18.67
2022-11-20T01:42:23.267Z,18.90
2022-11-20T01:43:25.529Z,18.44
2022-11-20T01:44:49.318Z,18.10
2022-11-20T01:46:00.920Z,20.80
2022-11-20T01:47:05.421Z,19.60
2022-11-20T01:48:07.930Z,19.90
2022-11-20T01:49:30.657Z,21.70
2022-11-20T01:50:32.726Z,18.70
2022-11-20T01:51:41.094Z,20.22
2022-11-20T01:52:49.365Z,20.50
2022-11-20T01:53:54.573Z,19.20
2022-11-20T01:55:06.462Z,17.50
2022-11-20T01:56:12.270Z,20.30
2022-11-20T01:57:18.172Z,19.10
2022-11-20T01:58:23.766Z,21.30
2022-11-20T01:59:28.393Z,23.50
2022-11-20T02:00:31.518Z,19.00
2022-11-20T02:01:34.612Z,20.40
2022-11-20T02:02:39.545Z,18.40
2022-11-20T02:03:42.378Z,20.80
2022-11-20T02:04:45.839Z,20.00
2022-11-20T02:06:15.799Z,18.50
2022-11-20T02:07:19.101Z,28.00
2022-11-20T02:08:24.583Z,24.80
2022-11-20T02:09:27.509Z,20.60
2022-11-20T02:10:30.195Z,22.45
2022-11-20T02:11:32.364Z,23.40
2022-11-20T02:12:34.249Z,22.50
2022-11-20T02:13:36.373Z,23.56
2022-11-20T02:14:38.308Z,23.40
2022-11-20T02:15:41.201Z,22.67
2022-11-20T02:16:49.589Z,21.50
2022-11-20T02:17:51.829Z,20.60
2022-11-20T02:19:00.420Z,17.80
2022-11-20T02:20:03.455Z,19.70
2022-11-20T02:21:09.089Z,25.40
2022-11-20T02:22:20.699Z,25.20
2022-11-20T02:23:26.259Z,23.80
2022-11-20T02:24:28.609Z,27.00
2022-11-20T02:25:33.310Z,29.20
2022-11-20T02:26:38.891Z,26.10
2022-11-20T02:27:41.253Z,24.50
2022-11-20T02:28:43.330Z,23.40
2022-11-20T02:29:48.909Z,25.00
2022-11-20T02:30:50.860Z,22.30
2022-11-20T02:31:55.525Z,24.22
2022-11-20T02:32:58.919Z,20.60
2022-11-20T02:34:01.912Z,24.10
2022-11-20T02:35:22.126Z,24.40
2022-11-20T02:36:27.895Z,8.50
2022-11-20T02:37:33.330Z,24.50
2022-11-20T02:38:35.605Z,18.20
2022-11-20T02:39:37.600Z,26.00
2022-11-20T02:40:39.592Z,22.60
2022-11-20T02:41:41.520Z,25.89
2022-11-20T02:42:44.258Z,24.33
2022-11-20T02:43:46.083Z,25.90
2022-11-20T02:44:47.800Z,26.44
2022-11-20T02:45:50.272Z,27.67
2022-11-20T02:46:52.290Z,25.70
2022-11-20T02:47:54.413Z,26.33
2022-11-20T02:48:56.308Z,26.20
2022-11-20T02:49:58.773Z,26.56
2022-11-20T02:51:00.779Z,21.50
2022-11-20T02:52:02.645Z,26.44
2022-11-20T02:53:04.876Z,23.33
2022-11-20T02:54:06.540Z,24.56
2022-11-20T02:55:08.828Z,26.30
2022-11-20T02:56:13.309Z,30.00
2022-11-20T02:57:15.203Z,28.90
2022-11-20T02:58:16.978Z,28.67
2022-11-20T02:59:18.996Z,20.56
2022-11-20T03:00:21.246Z,26.00
2022-11-20T03:01:23.200Z,26.33
2022-11-20T03:02:25.241Z,25.90
2022-11-20T03:03:26.956Z,23.00
2022-11-20T03:04:28.810Z,27.44
2022-11-20T03:05:30.601Z,24.67
2022-11-20T03:06:33.094Z,23.20
2022-11-20T03:07:34.772Z,26.89
2022-11-20T03:08:36.944Z,26.20
2022-11-20T03:09:38.737Z,27.89
2022-11-20T03:10:40.589Z,30.33
2022-11-20T03:11:42.496Z,27.89
2022-11-20T03:12:44.540Z,31.40
2022-11-20T03:13:46.464Z,30.78
2022-11-20T03:14:52.841Z,38.22
2022-11-20T03:15:51.821Z,34.50
2022-11-20T03:16:53.537Z,37.56
2022-11-20T03:17:55.971Z,36.22
2022-11-20T03:18:57.979Z,37.50
2022-11-20T03:19:59.738Z,34.78
2022-11-20T03:21:01.692Z,28.56
2022-11-20T03:22:03.603Z,30.11
2022-11-20T03:23:05.377Z,25.44
2022-11-20T03:24:08.903Z,24.78
2022-11-20T03:25:10.641Z,22.70
2022-11-20T03:26:21.462Z,28.70
2022-11-20T03:27:23.296Z,30.40
2022-11-20T03:28:24.926Z,28.89
2022-11-20T03:29:26.947Z,29.33
2022-11-20T03:30:30.758Z,22.30
2022-11-20T03:31:36.875Z,30.20
2022-11-20T03:32:38.858Z,26.40
2022-11-20T03:33:42.644Z,28.60
2022-11-20T03:34:45.166Z,27.40
2022-11-20T03:35:47.152Z,29.20
2022-11-20T03:36:50.070Z,29.22
2022-11-20T03:37:51.811Z,31.09
2022-11-20T03:38:55.060Z,28.89
2022-11-20T03:39:57.243Z,23.80
2022-11-20T03:41:04.599Z,29.20
2022-11-20T03:42:06.427Z,23.10
2022-11-20T03:43:10.055Z,33.00
2022-11-20T03:44:12.716Z,27.50
2022-11-20T03:45:17.461Z,27.80
2022-11-20T03:46:20.558Z,30.30
2022-11-20T03:47:22.546Z,32.20
2022-11-20T03:48:25.660Z,30.78
2022-11-20T03:49:27.653Z,34.55
2022-11-20T03:50:29.720Z,30.00
2022-11-20T03:51:33.884Z,34.44
2022-11-20T03:52:35.814Z,30.20
2022-11-20T03:53:38.531Z,32.56
2022-11-20T03:54:40.203Z,32.00
2022-11-20T03:55:42.239Z,33.44
2022-11-20T03:56:44.027Z,29.80
2022-11-20T03:57:45.658Z,19.11
2022-11-20T03:58:47.364Z,33.33
2022-11-20T03:59:49.297Z,26.44
2022-11-20T04:00:51.372Z,31.30
2022-11-20T04:01:53.168Z,29.33
2022-11-20T04:02:59.843Z,31.22
2022-11-20T04:04:01.991Z,27.00
2022-11-20T04:05:04.595Z,30.50
2022-11-20T04:06:12.058Z,33.40
2022-11-20T04:07:13.838Z,29.10
2022-11-20T04:08:15.804Z,31.30
2022-11-20T04:09:17.416Z,27.00
2022-11-20T04:10:19.592Z,27.44
2022-11-20T04:11:24.465Z,33.89
2022-11-20T04:12:26.229Z,26.60
2022-11-20T04:13:28.389Z,33.22
2022-11-20T04:14:30.769Z,34.60
2022-11-20T04:15:38.122Z,33.10
2022-11-20T04:16:36.879Z,36.70
2022-11-20T04:17:38.726Z,37.80
2022-11-20T04:18:40.793Z,39.67
2022-11-20T04:19:42.703Z,40.20
2022-11-20T04:20:44.559Z,41.89
2022-11-20T04:21:46.873Z,39.56
2022-11-20T04:22:48.660Z,41.60
2022-11-20T04:23:51.919Z,42.67
2022-11-20T04:24:53.747Z,41.50
2022-11-20T04:25:57.687Z,38.11
2022-11-20T04:26:59.588Z,40.60
2022-11-20T04:28:01.453Z,38.00
2022-11-20T04:29:04.529Z,35.89
2022-11-20T04:30:07.757Z,37.00
2022-11-20T04:31:12.758Z,35.10
2022-11-20T04:32:14.655Z,37.90
2022-11-20T04:33:16.383Z,36.78
2022-11-20T04:34:18.156Z,36.67
2022-11-20T04:35:19.976Z,36.78
2022-11-20T04:36:24.732Z,33.78
2022-11-20T04:37:26.547Z,37.20
2022-11-20T04:38:28.399Z,36.56
2022-11-20T04:39:30.006Z,39.33
2022-11-20T04:40:31.938Z,37.67
2022-11-20T04:41:36.680Z,38.11
2022-11-20T04:42:38.468Z,35.20
2022-11-20T04:43:40.097Z,25.56
2022-11-20T04:44:41.837Z,37.22
2022-11-20T04:45:43.461Z,35.56
2022-11-20T04:46:45.197Z,34.56
2022-11-20T04:47:46.822Z,38.33
2022-11-20T04:48:48.473Z,34.78
2022-11-20T04:49:50.536Z,35.89
2022-11-20T04:50:53.108Z,36.00
2022-11-20T04:51:55.483Z,35.70
2022-11-20T04:52:57.306Z,28.40
2022-11-20T04:53:59.207Z,30.11
2022-11-20T04:55:00.953Z,34.44
2022-11-20T04:56:05.735Z,30.22
2022-11-20T04:57:12.898Z,33.50
2022-11-20T04:58:11.945Z,33.50
2022-11-20T04:59:14.085Z,31.60
2022-11-20T05:00:17.080Z,33.60
2022-11-20T05:01:23.484Z,33.90
2022-11-20T05:02:25.887Z,30.50
2022-11-20T05:03:27.934Z,33.50
2022-11-20T05:04:29.830Z,33.90
2022-11-20T05:05:32.054Z,33.22
2022-11-20T05:06:34.350Z,33.10
2022-11-20T05:07:36.260Z,32.80
2022-11-20T05:08:38.624Z,30.22
2022-11-20T05:09:40.625Z,31.20
2022-11-20T05:10:42.428Z,26.90
2022-11-20T05:11:46.225Z,33.78
2022-11-20T05:12:48.091Z,30.40
2022-11-20T05:13:51.680Z,32.40
2022-11-20T05:14:53.887Z,26.80
2022-11-20T05:15:55.863Z,31.80
2022-11-20T05:16:57.706Z,30.89
2022-11-20T05:17:59.332Z,33.33
2022-11-20T05:19:01.069Z,31.78
2022-11-20T05:20:03.360Z,33.11
2022-11-20T05:21:06.801Z,29.60
2022-11-20T05:22:09.098Z,34.10
2022-11-20T05:23:10.927Z,33.00
2022-11-20T05:24:12.728Z,33.78
2022-11-20T05:25:15.128Z,30.33
2022-11-20T05:26:21.417Z,32.40
2022-11-20T05:27:23.284Z,33.00
2022-11-20T05:28:25.910Z,34.56
2022-11-20T05:29:27.712Z,33.20
2022-11-20T05:30:29.626Z,33.22
2022-11-20T05:31:32.417Z,33.44
2022-11-20T05:32:34.698Z,34.90
2022-11-20T05:33:37.081Z,32.90
2022-11-20T05:34:39.280Z,34.10
2022-11-20T05:35:41.303Z,34.70
2022-11-20T05:36:43.178Z,35.10
2022-11-20T05:37:45.031Z,34.33
2022-11-20T05:38:50.641Z,37.56
2022-11-20T05:39:51.199Z,38.60
2022-11-20T05:40:53.027Z,32.78
2022-11-20T05:41:55.021Z,37.22
2022-11-20T05:42:56.846Z,38.67
2022-11-20T05:43:58.788Z,38.33
2022-11-20T05:45:02.614Z,35.11
2022-11-20T05:46:06.332Z,35.40
2022-11-20T05:47:08.289Z,36.60
2022-11-20T05:48:09.917Z,37.44
2022-11-20T05:49:13.446Z,27.67
2022-11-20T05:50:17.484Z,34.90
2022-11-20T05:51:19.880Z,37.40
2022-11-20T05:52:21.698Z,36.50
2022-11-20T05:53:25.515Z,37.78
2022-11-20T05:54:27.412Z,35.80
2022-11-20T05:55:30.108Z,38.67
2022-11-20T05:56:31.973Z,37.55
2022-11-20T05:57:33.807Z,38.00
2022-11-20T05:58:36.353Z,38.67
2022-11-20T05:59:39.355Z,41.70
2022-11-20T06:00:41.726Z,41.80
2022-11-20T06:01:45.670Z,41.30
2022-11-20T06:02:47.539Z,43.50
2022-11-20T06:03:50.715Z,42.50
2022-11-20T06:04:52.598Z,44.36
2022-11-20T06:05:54.342Z,43.33
2022-11-20T06:06:56.277Z,42.11
2022-11-20T06:07:58.028Z,41.22
2022-11-20T06:08:59.941Z,45.22
2022-11-20T06:10:01.982Z,39.44
2022-11-20T06:11:05.878Z,43.80
2022-11-20T06:12:08.294Z,46.10
2022-11-20T06:13:09.972Z,45.10
2022-11-20T06:14:11.915Z,43.67
2022-11-20T06:15:13.932Z,45.70
2022-11-20T06:16:20.331Z,42.90
2022-11-20T06:17:22.901Z,44.40
2022-11-20T06:18:29.399Z,44.00
2022-11-20T06:19:31.500Z,45.40
2022-11-20T06:20:37.864Z,41.80
2022-11-20T06:21:37.167Z,47.10
2022-11-20T06:22:38.911Z,47.89
2022-11-20T06:23:41.541Z,45.22
2022-11-20T06:24:43.483Z,45.30
2022-11-20T06:25:45.264Z,44.22
2022-11-20T06:26:47.092Z,43.44
2022-11-20T06:27:48.902Z,42.78
2022-11-20T06:28:52.161Z,44.33
2022-11-20T06:29:54.101Z,40.40
2022-11-20T06:30:56.534Z,41.89
2022-11-20T06:31:58.411Z,43.90
2022-11-20T06:33:00.569Z,39.22
2022-11-20T06:34:02.907Z,41.20
2022-11-20T06:35:06.584Z,36.30
2022-11-20T06:36:12.459Z,38.70
2022-11-20T06:37:14.713Z,33.20
2022-11-20T06:38:16.685Z,37.40
2022-11-20T06:39:18.683Z,40.33
2022-11-20T06:40:21.403Z,41.91
2022-11-20T06:41:23.346Z,43.33
2022-11-20T06:42:25.680Z,39.67
2022-11-20T06:43:29.579Z,38.40
2022-11-20T06:44:31.505Z,38.40
2022-11-20T06:45:33.604Z,39.30
2022-11-20T06:46:35.534Z,33.44
2022-11-20T06:47:37.285Z,33.78
2022-11-20T06:48:40.026Z,35.44
2022-11-20T06:49:42.111Z,34.40
2022-11-20T06:50:44.164Z,33.78
2022-11-20T06:51:45.912Z,34.56
2022-11-20T06:52:47.728Z,26.67
2022-11-20T06:53:49.986Z,34.00
2022-11-20T06:54:51.887Z,29.90
2022-11-20T06:55:57.106Z,31.78
2022-11-20T06:56:59.250Z,33.00
2022-11-20T06:58:01.527Z,26.33
2022-11-20T06:59:07.671Z,26.20
2022-11-20T07:00:13.272Z,32.80
2022-11-20T07:01:15.927Z,31.10
2022-11-20T07:02:17.841Z,31.80
2022-11-20T07:03:21.741Z,29.67
2022-11-20T07:04:23.692Z,33.00
2022-11-20T07:05:25.403Z,34.67
2022-11-20T07:06:29.403Z,33.30
2022-11-20T07:07:31.261Z,35.80
2022-11-20T07:08:34.159Z,31.33
2022-11-20T07:09:35.836Z,33.70
2022-11-20T07:10:38.215Z,33.11
2022-11-20T07:11:40.218Z,32.40
2022-11-20T07:12:41.842Z,33.78
2022-11-20T07:13:43.806Z,29.56
2022-11-20T07:14:45.696Z,34.70
2022-11-20T07:15:48.484Z,28.78
2022-11-20T07:16:50.538Z,32.00
2022-11-20T07:17:52.685Z,30.22
2022-11-20T07:18:54.809Z,27.30
2022-11-20T07:19:56.569Z,32.22
2022-11-20T07:21:09.780Z,27.22
2022-11-20T07:22:12.028Z,25.10
2022-11-20T07:23:14.933Z,30.70
2022-11-20T07:24:17.270Z,29.18
2022-11-20T07:25:19.716Z,25.90
2022-11-20T07:26:21.522Z,28.30
2022-11-20T07:27:23.137Z,32.33
2022-11-20T07:28:24.943Z,30.00
2022-11-20T07:29:26.793Z,29.78
2022-11-20T07:30:29.649Z,30.30
2022-11-20T07:31:31.697Z,32.45
2022-11-20T07:32:33.585Z,30.44
2022-11-20T07:33:35.543Z,26.11
2022-11-20T07:34:37.186Z,31.22
2022-11-20T07:35:39.138Z,32.44
2022-11-20T07:36:41.555Z,27.10
2022-11-20T07:37:43.448Z,28.40
2022-11-20T07:38:45.196Z,31.67
2022-11-20T07:39:47.456Z,26.56
2022-11-20T07:40:53.057Z,28.60
2022-11-20T07:41:55.855Z,30.40
2022-11-20T07:42:57.732Z,29.73
2022-11-20T07:44:00.728Z,26.78
2022-11-20T07:45:02.876Z,31.18
2022-11-20T07:46:05.175Z,35.40
2022-11-20T07:47:06.944Z,33.70
2022-11-20T07:48:08.683Z,30.44
2022-11-20T07:49:10.558Z,29.00
2022-11-20T07:50:14.049Z,31.10
2022-11-20T07:51:15.968Z,26.73
2022-11-20T07:52:17.888Z,29.44
2022-11-20T07:53:19.508Z,28.78
2022-11-20T07:54:22.316Z,33.11
2022-11-20T07:55:24.182Z,31.55
2022-11-20T07:56:25.948Z,27.33
2022-11-20T07:57:28.616Z,26.44
2022-11-20T07:58:32.167Z,29.82
2022-11-20T07:59:34.036Z,27.30
2022-11-20T08:00:36.013Z,28.78
2022-11-20T08:01:39.037Z,30.67
2022-11-20T08:02:41.775Z,29.18
2022-11-20T08:03:43.556Z,28.70
2022-11-20T08:04:45.291Z,27.33
2022-11-20T08:05:47.434Z,24.89
2022-11-20T08:06:50.653Z,28.00
2022-11-20T08:07:52.672Z,32.40
2022-11-20T08:08:54.366Z,22.20
2022-11-20T08:09:55.980Z,25.78
2022-11-20T08:10:58.850Z,22.67
2022-11-20T08:12:02.666Z,28.50
2022-11-20T08:13:04.811Z,33.90
2022-11-20T08:14:06.692Z,16.00
2022-11-20T08:15:13.061Z,34.00
2022-11-20T08:16:14.775Z,30.90
2022-11-20T08:17:17.128Z,29.40
2022-11-20T08:18:34.894Z,22.80
2022-11-20T08:19:23.718Z,28.20
2022-11-20T08:20:26.371Z,23.20
2022-11-20T08:21:28.153Z,27.30
2022-11-20T08:22:31.733Z,29.56
2022-11-20T08:23:33.865Z,26.80
2022-11-20T08:24:35.491Z,29.33
2022-11-20T08:25:39.597Z,30.56
2022-11-20T08:26:41.544Z,29.40
2022-11-20T08:27:43.326Z,30.11
2022-11-20T08:28:45.217Z,28.22
2022-11-20T08:29:48.163Z,30.56
2022-11-20T08:30:52.558Z,30.60
2022-11-20T08:31:54.402Z,26.10
2022-11-20T08:33:02.703Z,23.00
2022-11-20T08:34:09.164Z,24.70
2022-11-20T08:35:09.122Z,25.00
2022-11-20T08:36:11.989Z,26.90
2022-11-20T08:37:13.766Z,23.10
2022-11-20T08:38:15.420Z,22.78
2022-11-20T08:39:18.105Z,23.33
2022-11-20T08:40:20.014Z,23.70
2022-11-20T08:41:22.716Z,19.11
2022-11-20T08:42:24.464Z,23.80
2022-11-20T08:43:26.202Z,23.11
2022-11-20T08:44:28.400Z,22.67
2022-11-20T08:45:34.014Z,26.40
2022-11-20T08:46:39.327Z,22.10
2022-11-20T08:47:41.483Z,23.20
2022-11-20T08:48:43.981Z,14.60
2022-11-20T08:49:46.349Z,25.00
2022-11-20T08:50:48.277Z,23.90
2022-11-20T08:51:50.520Z,30.50
2022-11-20T08:52:52.206Z,25.40
2022-11-20T08:53:54.086Z,25.67
2022-11-20T08:54:56.266Z,25.11
2022-11-20T08:55:58.772Z,24.50
2022-11-20T08:57:01.737Z,33.30
2022-11-20T08:58:04.830Z,28.70
2022-11-20T09:00:13.485Z,31.20
2022-11-20T09:01:15.990Z,31.00
2022-11-20T09:02:18.461Z,25.50
2022-11-20T09:03:20.890Z,25.50
2022-11-20T09:04:22.734Z,24.10
2022-11-20T09:05:24.942Z,31.11
2022-11-20T09:06:26.947Z,31.30
2022-11-20T09:07:30.087Z,29.00
2022-11-20T09:08:32.917Z,29.20
2022-11-20T09:09:34.611Z,29.30
2022-11-20T09:10:37.127Z,27.89
2022-11-20T09:11:38.901Z,31.70
2022-11-20T09:12:40.564Z,30.22
2022-11-20T09:13:42.169Z,31.89
2022-11-20T09:14:43.823Z,30.89
2022-11-20T09:15:45.421Z,30.89
2022-11-20T09:16:47.258Z,33.22
2022-11-20T09:17:56.877Z,34.33
2022-11-20T09:19:20.707Z,34.90
2022-11-20T09:20:05.272Z,35.00
2022-11-20T09:21:10.835Z,36.70
2022-11-20T09:22:13.172Z,36.80
2022-11-20T09:23:15.791Z,33.50
2022-11-20T09:24:18.180Z,24.40
2022-11-20T09:25:20.014Z,36.60
2022-11-20T09:26:22.211Z,34.56
2022-11-20T09:27:23.930Z,28.20
2022-11-20T09:28:27.240Z,33.78
2022-11-20T09:29:29.356Z,31.90
2022-11-20T09:30:31.483Z,33.40
2022-11-20T09:31:33.281Z,34.50
2022-11-20T09:32:35.006Z,33.89
2022-11-20T09:33:36.845Z,35.67
2022-11-20T09:34:38.577Z,27.89
2022-11-20T09:35:41.402Z,33.11
2022-11-20T09:36:43.456Z,29.00
2022-11-20T09:37:45.619Z,28.89
2022-11-20T09:38:47.913Z,30.60
2022-11-20T09:39:51.131Z,23.20
2022-11-20T09:40:58.982Z,32.00
2022-11-20T09:42:10.804Z,31.20
2022-11-20T09:43:32.325Z,28.70
2022-11-20T09:44:56.688Z,28.90
2022-11-20T09:46:20.326Z,26.80
2022-11-20T09:47:59.752Z,28.20
2022-11-20T09:49:20.343Z,22.40
2022-11-20T09:50:29.133Z,27.00
2022-11-20T09:51:55.879Z,30.90
2022-11-20T09:53:16.650Z,25.60
2022-11-20T09:54:21.184Z,28.10
2022-11-20T09:55:23.606Z,31.90
2022-11-20T09:56:26.910Z,29.20
2022-11-20T09:57:38.167Z,28.60
2022-11-20T09:58:50.210Z,29.40
2022-11-20T09:59:58.962Z,30.00
2022-11-20T10:01:14.311Z,28.30
2022-11-20T10:02:26.520Z,27.60
2022-11-20T10:03:40.807Z,21.10
2022-11-20T10:04:47.356Z,26.40
2022-11-20T10:05:53.020Z,30.10
2022-11-20T10:07:30.388Z,27.90
2022-11-20T10:08:21.020Z,28.60
2022-11-20T10:09:35.628Z,27.60
2022-11-20T10:10:46.436Z,27.90
2022-11-20T10:12:02.032Z,23.60
2022-11-20T10:13:29.085Z,24.60
2022-11-20T10:14:37.290Z,22.20
2022-11-20T10:15:45.772Z,21.60
2022-11-20T10:17:08.395Z,23.70
2022-11-20T10:18:23.191Z,20.10
2022-11-20T10:19:32.808Z,25.30
2022-11-20T10:20:44.400Z,25.90
2022-11-20T10:22:02.528Z,28.20
2022-11-20T10:23:25.613Z,24.90
2022-11-20T10:24:54.218Z,23.20
2022-11-20T10:26:05.992Z,24.70
2022-11-20T10:27:17.274Z,21.20
2022-11-20T10:28:41.603Z,25.90
2022-11-20T10:29:47.507Z,22.50
2022-11-20T10:30:54.308Z,20.20
2022-11-20T10:31:59.877Z,20.70
2022-11-20T10:33:11.534Z,24.50
2022-11-20T10:34:22.985Z,24.20
2022-11-20T10:35:42.894Z,23.00
2022-11-20T10:36:48.570Z,19.70
2022-11-20T10:37:56.839Z,23.10
2022-11-20T10:39:08.038Z,22.40
2022-11-20T10:40:40.048Z,23.60
2022-11-20T10:41:44.064Z,22.30
2022-11-20T10:42:49.664Z,22.70
2022-11-20T10:44:07.491Z,19.90
2022-11-20T10:45:16.775Z,18.20
2022-11-20T10:46:24.141Z,26.90
2022-11-20T10:47:27.876Z,25.20
2022-11-20T10:48:31.949Z,25.00
2022-11-20T10:49:34.874Z,22.00
2022-11-20T10:50:40.496Z,24.60
2022-11-20T10:51:56.955Z,22.50
2022-11-20T10:53:20.703Z,23.60
2022-11-20T10:54:49.418Z,24.10
2022-11-20T10:56:00.932Z,24.80
2022-11-20T10:58:38.830Z,24.20
2022-11-20T11:00:02.881Z,22.20
2022-11-20T11:01:17.945Z,21.70
2022-11-20T11:02:23.172Z,22.00
2022-11-20T11:03:28.705Z,20.60
2022-11-20T11:04:47.312Z,22.40
2022-11-20T11:06:11.244Z,23.00
2022-11-20T11:07:16.938Z,23.50
2022-11-20T11:08:20.229Z,21.70
2022-11-20T11:09:25.792Z,27.10
2022-11-20T11:10:37.555Z,23.10
2022-11-20T11:11:39.587Z,26.50
2022-11-20T11:12:45.070Z,22.44
2022-11-20T11:13:46.899Z,26.70
2022-11-20T11:14:51.361Z,24.33
2022-11-20T11:15:54.803Z,24.80
2022-11-20T11:16:58.262Z,23.00
2022-11-20T11:18:00.201Z,21.30
2022-11-20T11:19:08.211Z,15.20
2022-11-20T11:20:21.898Z,23.40
2022-11-20T11:21:25.447Z,21.00
2022-11-20T11:22:34.257Z,20.40
2022-11-20T11:23:42.229Z,21.60
2022-11-20T11:24:52.769Z,23.60
2022-11-20T11:25:59.667Z,23.00
2022-11-20T11:27:04.656Z,23.40
2022-11-20T11:28:21.986Z,22.30
2022-11-20T11:29:24.481Z,22.00
2022-11-20T11:30:29.354Z,24.60
2022-11-20T11:31:34.222Z,20.60
2022-11-20T11:32:36.150Z,19.20
2022-11-20T11:33:38.106Z,20.44
2022-11-20T11:34:40.325Z,22.60
2022-11-20T11:36:59.547Z,21.60
2022-11-20T11:38:08.306Z,22.70
2022-11-20T11:39:17.450Z,20.20
2022-11-20T11:40:24.346Z,21.10
2022-11-20T11:41:30.467Z,20.00
2022-11-20T11:42:33.412Z,21.80
2022-11-20T11:43:38.473Z,22.50
2022-11-20T11:44:44.648Z,22.80
2022-11-20T11:45:56.455Z,22.50
2022-11-20T11:46:58.796Z,21.90
2022-11-20T11:48:04.127Z,16.90
2022-11-20T11:49:12.726Z,27.00
2022-11-20T11:50:20.201Z,21.60
2022-11-20T11:51:23.202Z,25.40
2022-11-20T11:52:26.711Z,25.30
2022-11-20T11:53:30.580Z,27.80
2022-11-20T11:54:46.112Z,29.40
2022-11-20T11:55:57.862Z,23.50
2022-11-20T11:57:04.626Z,24.90
2022-11-20T11:58:33.036Z,26.00
2022-11-20T12:00:04.552Z,25.00
2022-11-20T12:01:16.090Z,25.90
2022-11-20T12:02:40.224Z,25.50
2022-11-20T12:03:45.164Z,23.20
2022-11-20T12:04:53.424Z,25.70
2022-11-20T12:06:01.997Z,24.90
2022-11-20T12:07:50.588Z,26.50
2022-11-20T12:08:50.251Z,28.20
2022-11-20T12:09:55.590Z,27.40
2022-11-20T12:11:26.924Z,25.30
2022-11-20T12:12:33.067Z,28.00
2022-11-20T12:13:38.585Z,27.60
2022-11-20T12:14:44.289Z,27.00
2022-11-20T12:15:48.329Z,24.50
2022-11-20T12:18:21.622Z,29.10
2022-11-20T12:19:25.012Z,28.90
2022-11-20T12:20:31.937Z,23.20
2022-11-20T12:21:40.976Z,27.30
2022-11-20T12:22:59.805Z,25.40
2022-11-20T12:24:08.340Z,27.10
2022-11-20T12:25:14.186Z,23.80
2022-11-20T12:26:27.905Z,24.00
2022-11-20T12:27:46.397Z,25.10
2022-11-20T12:29:07.485Z,24.70
2022-11-20T12:30:13.153Z,28.70
2022-11-20T12:31:31.317Z,20.60
2022-11-20T12:32:39.631Z,24.90
2022-11-20T12:34:09.073Z,22.10
2022-11-20T12:35:48.751Z,22.40
2022-11-20T12:37:12.244Z,25.00
2022-11-20T12:38:48.328Z,24.50
2022-11-20T12:39:51.593Z,27.20
2022-11-20T12:40:57.296Z,24.80
2022-11-20T12:42:23.460Z,27.80
2022-11-20T12:43:29.178Z,27.30
2022-11-20T12:44:50.889Z,25.80
2022-11-20T12:46:02.655Z,29.20
2022-11-20T12:47:11.263Z,28.20
2022-11-20T12:48:46.048Z,26.40
2022-11-20T12:49:48.930Z,27.40
2022-11-20T12:51:16.354Z,23.50
2022-11-20T12:52:28.089Z,22.40
2022-11-20T12:54:00.637Z,25.60
2022-11-20T12:55:19.685Z,17.50
2022-11-20T12:56:35.495Z,26.60
2022-11-20T12:58:07.470Z,24.10
2022-11-20T12:59:19.613Z,28.50
2022-11-20T13:00:24.278Z,26.90
2022-11-20T13:01:48.331Z,26.00
2022-11-20T13:03:09.138Z,24.20
2022-11-20T13:04:39.563Z,29.20
2022-11-20T13:05:57.299Z,27.70
2022-11-20T13:07:05.401Z,25.50
2022-11-20T13:08:11.834Z,25.40
2022-11-20T13:09:18.455Z,26.20
2022-11-20T13:10:37.139Z,25.20
2022-11-20T13:11:58.720Z,21.60
2022-11-20T13:13:16.989Z,26.30
2022-11-20T13:14:22.905Z,23.30
2022-11-20T13:15:33.681Z,26.80
2022-11-20T13:16:54.554Z,28.30
2022-11-20T13:18:05.524Z,25.60
2022-11-20T13:19:13.730Z,28.30
2022-11-20T13:20:20.805Z,26.00
2022-11-20T13:21:26.758Z,24.60
2022-11-20T13:22:31.701Z,27.80
2022-11-20T13:23:33.571Z,25.30
2022-11-20T13:24:35.633Z,25.56
2022-11-20T13:25:40.621Z,23.90
2022-11-20T13:26:42.722Z,27.20
2022-11-20T13:27:49.508Z,27.40
2022-11-20T13:29:11.954Z,24.50
2022-11-20T13:30:19.349Z,27.00
2022-11-20T13:31:34.604Z,23.40
2022-11-20T13:32:36.436Z,24.60
2022-11-20T13:33:39.664Z,26.11
2022-11-20T13:34:54.549Z,27.40
2022-11-20T13:36:00.211Z,26.50
2022-11-20T13:37:02.252Z,25.30
2022-11-20T13:38:12.753Z,26.33
2022-11-20T13:39:18.245Z,26.80
2022-11-20T13:40:24.446Z,27.40
2022-11-20T13:41:30.460Z,26.90
2022-11-20T13:42:38.672Z,22.20
2022-11-20T13:43:42.912Z,30.60
2022-11-20T13:44:48.913Z,23.10
2022-11-20T13:46:00.698Z,26.50
2022-11-20T13:47:02.766Z,30.30
2022-11-20T13:48:08.562Z,27.20
2022-11-20T13:49:17.328Z,25.40
2022-11-20T13:50:25.191Z,14.60
2022-11-20T13:51:36.920Z,26.40
2022-11-20T13:52:51.829Z,23.80
2022-11-20T13:54:03.772Z,25.80
2022-11-20T13:55:34.593Z,17.80
2022-11-20T13:56:46.771Z,25.20
2022-11-20T13:58:01.157Z,28.70
2022-11-20T13:59:12.082Z,25.27
2022-11-20T14:00:15.155Z,27.00
2022-11-20T14:01:27.032Z,27.60
2022-11-20T14:02:31.757Z,26.00
2022-11-20T14:04:04.691Z,27.40
2022-11-20T14:04:42.591Z,27.60
2022-11-20T14:06:06.002Z,26.30
2022-11-20T14:07:11.084Z,25.70
2022-11-20T14:08:17.040Z,27.10